Time;durP1;ratioP1;P1;durP2;ratioP2;P2;SDS_P1;SDS_P2;PMS_P1;PMS_P2;Temp;Humidity;BMP_temperature;BMP_pressure;BME280_temperature;BME280_humidity;BME280_pressure;Samples;Min_cycle;Max_cycle;Signal;HPM_P1;HPM_P2
2022/07/11 00:01:51;;;;;;;1.98;0.70;;;13.30;99.90;;;;;;5073250;28;20382;-80
2022/07/11 00:04:19;;;;;;;2.63;0.77;;;13.40;99.90;;;;;;5075205;28;20413;-80
2022/07/11 00:06:46;;;;;;;1.30;0.60;;;13.50;99.90;;;;;;5073951;28;20451;-81
2022/07/11 00:09:13;;;;;;;1.95;0.63;;;13.50;99.90;;;;;;5075290;28;20426;-80
2022/07/11 00:11:40;;;;;;;2.00;0.70;;;13.60;99.90;;;;;;5075194;28;20468;-82
2022/07/11 00:14:07;;;;;;;2.30;0.60;;;13.40;99.90;;;;;;5075023;28;20383;-81
2022/07/11 00:16:34;;;;;;;1.60;0.60;;;13.20;99.90;;;;;;5074961;28;20842;-81
2022/07/11 00:19:01;;;;;;;1.65;0.68;;;13.20;99.90;;;;;;5075044;28;20396;-80
2022/07/11 00:21:28;;;;;;;1.92;0.77;;;13.10;99.90;;;;;;5075229;28;20409;-80
2022/07/11 00:23:56;;;;;;;2.17;0.80;;;13.00;99.90;;;;;;5074722;28;20767;-81
2022/07/11 00:26:23;;;;;;;2.20;0.75;;;12.90;99.90;;;;;;5074858;28;20382;-81
2022/07/11 00:28:51;;;;;;;2.08;0.63;;;12.80;99.90;;;;;;5074837;28;20374;-81
2022/07/11 00:31:18;;;;;;;1.85;1.13;;;12.70;99.90;;;;;;5074833;28;20427;-81
2022/07/11 00:33:45;;;;;;;2.95;1.10;;;12.80;99.90;;;;;;5074526;28;20383;-79
2022/07/11 00:36:12;;;;;;;1.90;0.80;;;12.90;99.90;;;;;;5074702;28;20430;-80
2022/07/11 00:38:40;;;;;;;2.92;0.90;;;12.90;99.90;;;;;;5074678;28;20365;-82
2022/07/11 00:41:07;;;;;;;2.55;1.38;;;13.00;99.90;;;;;;5074571;28;20512;-81
2022/07/11 00:43:38;;;;;;;2.03;0.82;;;13.10;99.90;;;;;;5074560;28;20791;-81
2022/07/11 00:46:08;;;;;;;2.00;0.70;;;13.10;99.90;;;;;;5074571;28;20375;-81
2022/07/11 00:48:36;;;;;;;2.65;1.20;;;13.40;99.90;;;;;;5074526;28;20380;-81
2022/07/11 00:51:04;;;;;;;3.40;1.13;;;13.60;99.90;;;;;;5074370;28;20370;-80
2022/07/11 00:53:32;;;;;;;2.58;0.80;;;13.70;99.90;;;;;;5074223;28;20373;-81
2022/07/11 00:56:01;;;;;;;3.72;1.20;;;13.80;99.90;;;;;;5074625;28;20382;-82
2022/07/11 00:58:28;;;;;;;4.45;1.30;;;14.00;99.90;;;;;;5074365;28;20359;-81
2022/07/11 01:00:57;;;;;;;2.60;0.63;;;14.30;99.90;;;;;;5074251;28;20922;-81
2022/07/11 01:03:24;;;;;;;2.88;0.70;;;14.60;99.90;;;;;;5074080;28;20378;-82
2022/07/11 01:05:51;;;;;;;6.13;2.65;;;14.70;99.90;;;;;;5074204;28;20386;-80
2022/07/11 01:08:18;;;;;;;1.88;0.80;;;14.70;99.90;;;;;;5074145;28;20371;-81
2022/07/11 01:10:46;;;;;;;1.43;0.57;;;14.90;99.90;;;;;;5074080;28;20387;-80
2022/07/11 01:13:13;;;;;;;2.00;0.63;;;15.00;99.90;;;;;;5073121;28;20912;-82
2022/07/11 01:15:40;;;;;;;2.45;0.80;;;15.00;99.90;;;;;;5073916;28;20378;-82
2022/07/11 01:18:07;;;;;;;3.73;1.70;;;15.10;99.90;;;;;;5073964;28;20478;-81
2022/07/11 01:20:34;;;;;;;2.13;0.68;;;15.20;99.90;;;;;;5073622;28;20370;-81
2022/07/11 01:23:05;;;;;;;3.75;0.80;;;15.10;99.90;;;;;;5073748;28;20373;-82
2022/07/11 01:25:34;;;;;;;2.65;0.77;;;14.90;99.90;;;;;;5073797;28;20432;-82
2022/07/11 01:28:06;;;;;;;3.72;1.10;;;14.80;99.90;;;;;;5073633;28;20370;-80
2022/07/11 01:30:33;;;;;;;2.70;1.08;;;14.70;99.90;;;;;;5073732;28;20893;-81
2022/07/11 01:33:01;;;;;;;3.80;1.00;;;14.70;99.90;;;;;;5073263;28;20394;-81
2022/07/11 01:35:29;;;;;;;2.63;0.65;;;14.70;99.90;;;;;;5073660;28;20381;-82
2022/07/11 01:37:56;;;;;;;2.90;0.70;;;14.60;99.90;;;;;;5073629;28;20854;-82
2022/07/11 01:40:23;;;;;;;4.80;0.75;;;14.50;99.90;;;;;;5073643;28;20386;-81
2022/07/11 01:42:50;;;;;;;3.70;0.80;;;14.40;99.90;;;;;;5073397;28;20405;-81
2022/07/11 01:45:17;;;;;;;2.53;0.67;;;14.50;99.90;;;;;;5072048;28;20456;-81
2022/07/11 01:47:45;;;;;;;1.88;0.70;;;14.80;99.90;;;;;;5073377;28;20366;-79
2022/07/11 01:50:12;;;;;;;2.70;0.90;;;15.00;99.90;;;;;;5071900;28;20378;-81
2022/07/11 01:52:40;;;;;;;2.70;0.73;;;15.10;99.90;;;;;;5076243;28;20370;-80
2022/07/11 01:55:07;;;;;;;3.10;0.80;;;15.10;99.90;;;;;;5078439;28;20481;-81
2022/07/11 01:57:34;;;;;;;2.33;0.90;;;15.10;99.90;;;;;;5075394;28;20382;-81
2022/07/11 02:00:02;;;;;;;3.45;0.60;;;15.30;99.90;;;;;;5074476;28;20378;-80
2022/07/11 02:02:30;;;;;;;2.95;0.60;;;15.20;99.90;;;;;;5073506;28;20967;-83
2022/07/11 02:04:57;;;;;;;4.10;2.10;;;15.00;99.90;;;;;;5073346;28;20405;-80
2022/07/11 02:10:09;;;;;;;5.63;1.00;;;15.00;99.90;;;;;;5073540;28;20362;-82
2022/07/11 02:12:36;;;;;;;2.97;0.70;;;15.20;99.90;;;;;;5073096;28;20374;-82
2022/07/11 02:15:04;;;;;;;3.80;0.80;;;15.60;99.90;;;;;;5075165;28;20431;-82
2022/07/11 02:17:31;;;;;;;3.58;0.77;;;15.70;99.90;;;;;;5074894;28;20479;-80
2022/07/11 02:19:58;;;;;;;3.70;0.70;;;15.60;99.90;;;;;;5073542;28;20456;-81
2022/07/11 02:22:26;;;;;;;3.28;0.80;;;15.50;99.90;;;;;;5075181;28;20818;-84
2022/07/11 02:24:56;;;;;;;2.97;0.90;;;15.50;99.90;;;;;;5075173;28;20402;-81
2022/07/11 02:27:25;;;;;;;4.47;0.80;;;15.60;99.90;;;;;;5075210;28;20374;-81
2022/07/11 02:29:52;;;;;;;3.55;0.75;;;15.40;99.90;;;;;;5073920;28;20792;-82
2022/07/11 02:32:19;;;;;;;3.47;0.70;;;15.30;99.90;;;;;;5074229;28;20370;-81
2022/07/11 02:34:46;;;;;;;3.25;0.80;;;15.10;99.90;;;;;;5074365;28;20389;-82
2022/07/11 02:37:13;;;;;;;2.90;0.80;;;15.10;99.90;;;;;;5073999;28;20410;-81
2022/07/11 02:39:40;;;;;;;2.15;0.70;;;15.30;99.90;;;;;;5074681;28;20478;-80
2022/07/11 02:42:07;;;;;;;3.20;0.98;;;15.60;99.90;;;;;;5052309;28;20367;-82
2022/07/11 02:44:34;;;;;;;2.42;0.68;;;15.80;99.90;;;;;;5052223;28;20395;-84
2022/07/11 02:47:02;;;;;;;2.22;0.75;;;16.00;99.90;;;;;;5052300;28;20841;-81
2022/07/11 02:49:32;;;;;;;2.90;0.70;;;16.00;99.90;;;;;;5051475;28;20387;-81
2022/07/11 02:52:02;;;;;;;2.67;0.70;;;15.70;99.90;;;;;;5053875;28;20372;-81
2022/07/11 02:54:29;;;;;;;3.42;0.75;;;15.60;99.90;;;;;;5052894;28;20430;-81
2022/07/11 02:56:57;;;;;;;1.80;0.60;;;15.30;99.90;;;;;;5051474;28;20368;-79
2022/07/11 02:59:24;;;;;;;4.22;0.80;;;15.20;99.90;;;;;;5051715;28;20441;-80
2022/07/11 03:01:51;;;;;;;2.95;0.80;;;15.20;99.90;;;;;;5051525;28;20452;-81
2022/07/11 03:04:19;;;;;;;2.83;0.80;;;15.40;99.90;;;;;;5051800;28;20514;-83
2022/07/11 03:06:46;;;;;;;2.88;1.00;;;15.70;99.90;;;;;;5051410;28;20383;-83
2022/07/11 03:09:14;;;;;;;3.17;1.23;;;16.20;99.90;;;;;;5052668;28;20771;-81
2022/07/11 03:11:41;;;;;;;2.85;1.10;;;16.40;99.90;;;;;;5051297;28;20379;-81
2022/07/11 03:14:09;;;;;;;4.00;0.90;;;16.40;99.90;;;;;;5050867;28;20404;-80
2022/07/11 03:16:36;;;;;;;3.40;0.80;;;16.20;99.60;;;;;;5050731;28;20379;-81
2022/07/11 03:19:03;;;;;;;2.00;0.80;;;16.00;97.20;;;;;;5043615;28;20955;-82
2022/07/11 03:21:30;;;;;;;3.22;0.73;;;15.80;97.80;;;;;;5073058;28;20421;-81
2022/07/11 03:23:57;;;;;;;3.00;0.80;;;15.70;98.50;;;;;;5072871;28;20393;-82
2022/07/11 03:26:24;;;;;;;2.75;0.80;;;15.60;99.30;;;;;;5054174;28;20866;-82
2022/07/11 03:28:51;;;;;;;2.45;0.70;;;15.60;99.90;;;;;;5072229;28;20373;-82
2022/07/11 03:31:19;;;;;;;3.80;0.90;;;15.50;99.90;;;;;;5072167;28;20402;-82
2022/07/11 03:33:46;;;;;;;3.08;0.93;;;15.50;99.90;;;;;;5072547;28;20498;-81
2022/07/11 03:36:13;;;;;;;3.78;1.70;;;15.60;99.90;;;;;;5072563;28;20401;-82
2022/07/11 03:38:40;;;;;;;3.10;0.60;;;15.80;99.90;;;;;;5076359;28;20464;-81
2022/07/11 03:41:07;;;;;;;1.92;0.60;;;16.10;99.80;;;;;;5075885;28;20378;-81
2022/07/11 03:43:35;;;;;;;2.67;0.90;;;16.20;96.20;;;;;;5075965;28;20404;-81
2022/07/11 03:46:06;;;;;;;3.63;0.95;;;16.50;99.90;;;;;;5075362;28;20388;-82
2022/07/11 03:48:33;;;;;;;3.40;0.90;;;16.70;99.90;;;;;;5075508;28;20362;-81
2022/07/11 03:51:01;;;;;;;2.63;0.80;;;16.70;99.90;;;;;;5075473;28;20454;-82
2022/07/11 03:53:28;;;;;;;3.10;1.00;;;16.70;99.90;;;;;;5075396;28;20782;-81
2022/07/11 03:55:55;;;;;;;2.45;0.90;;;16.70;99.90;;;;;;5076210;28;20752;-81
2022/07/11 03:58:23;;;;;;;3.38;0.95;;;16.60;99.90;;;;;;5075492;28;20385;-81
2022/07/11 04:00:50;;;;;;;2.40;1.05;;;16.50;99.90;;;;;;5073981;28;20460;-81
2022/07/11 04:03:17;;;;;;;2.50;0.97;;;16.40;99.90;;;;;;5075303;28;20381;-83
2022/07/11 04:05:45;;;;;;;1.92;0.82;;;16.30;99.90;;;;;;5077771;28;20414;-80
2022/07/11 04:08:12;;;;;;;2.75;0.80;;;16.20;99.90;;;;;;5076227;28;20378;-82
2022/07/11 04:10:39;;;;;;;4.43;1.00;;;16.10;99.90;;;;;;5075212;28;20738;-83
2022/07/11 04:13:07;;;;;;;2.42;0.90;;;16.00;99.90;;;;;;5075131;28;20374;-83
2022/07/11 04:15:34;;;;;;;1.58;0.70;;;15.90;99.90;;;;;;5075708;28;20427;-82
2022/07/11 04:18:02;;;;;;;2.73;0.87;;;15.80;99.90;;;;;;5074577;28;20465;-83
2022/07/11 04:20:30;;;;;;;2.78;0.90;;;15.60;99.90;;;;;;5083703;28;20370;-82
2022/07/11 04:22:57;;;;;;;3.47;0.95;;;15.50;99.90;;;;;;5076154;28;20374;-82
2022/07/11 04:25:24;;;;;;;2.85;0.80;;;15.30;99.90;;;;;;5075140;28;20406;-82
2022/07/11 04:27:51;;;;;;;2.53;1.00;;;15.20;99.90;;;;;;5074987;28;20386;-83
2022/07/11 04:30:18;;;;;;;2.25;1.02;;;15.10;99.90;;;;;;5074902;28;20898;-83
2022/07/11 04:32:46;;;;;;;2.65;1.10;;;15.00;99.90;;;;;;5073488;28;20524;-82
2022/07/11 04:35:13;;;;;;;2.20;1.00;;;14.90;99.90;;;;;;5074765;28;20362;-83
2022/07/11 04:37:40;;;;;;;5.97;1.00;;;14.80;99.90;;;;;;5074734;28;20874;-82
2022/07/11 04:40:07;;;;;;;4.93;1.23;;;14.80;99.90;;;;;;5074730;28;20385;-82
2022/07/11 04:42:34;;;;;;;3.88;0.98;;;14.70;99.90;;;;;;5074547;28;20427;-82
2022/07/11 04:45:01;;;;;;;4.38;1.00;;;14.70;99.90;;;;;;5074941;28;20489;-82
2022/07/11 04:47:28;;;;;;;3.22;0.90;;;14.70;99.90;;;;;;5074244;28;20374;-81
2022/07/11 04:49:56;;;;;;;3.35;0.90;;;14.60;99.90;;;;;;5073640;28;20443;-81
2022/07/11 04:52:26;;;;;;;3.35;1.00;;;14.70;99.90;;;;;;5074383;28;20488;-81
2022/07/11 04:54:54;;;;;;;2.85;0.98;;;14.70;99.90;;;;;;5074346;28;20795;-81
2022/07/11 04:57:21;;;;;;;4.57;1.70;;;14.70;99.90;;;;;;5074300;28;20374;-81
2022/07/11 04:59:48;;;;;;;3.00;1.17;;;14.70;99.90;;;;;;5076370;28;20422;-81
2022/07/11 05:02:17;;;;;;;5.10;1.30;;;14.70;99.90;;;;;;5079653;28;20366;-81
2022/07/11 05:04:45;;;;;;;5.78;1.70;;;14.80;99.90;;;;;;5077042;28;20401;-81
2022/07/11 05:07:15;;;;;;;3.60;1.20;;;14.80;99.90;;;;;;5075100;28;20428;-82
2022/07/11 05:09:42;;;;;;;4.17;1.20;;;14.90;99.90;;;;;;5074201;28;20389;-82
2022/07/11 05:12:10;;;;;;;3.95;1.15;;;14.90;99.90;;;;;;5072800;28;20461;-82
2022/07/11 05:14:37;;;;;;;3.88;1.30;;;15.00;99.90;;;;;;5074071;28;20381;-82
2022/07/11 05:17:04;;;;;;;3.70;1.10;;;15.10;99.90;;;;;;5074217;28;20415;-82
2022/07/11 05:19:31;;;;;;;3.47;1.10;;;14.90;99.90;;;;;;5072752;28;20418;-81
2022/07/11 05:21:58;;;;;;;3.38;1.15;;;14.90;99.90;;;;;;5074047;28;20415;-82
2022/07/11 05:24:25;;;;;;;4.07;0.90;;;14.90;99.90;;;;;;5073908;28;20398;-82
2022/07/11 05:26:52;;;;;;;2.88;0.98;;;14.90;99.90;;;;;;5073777;28;20370;-81
2022/07/11 05:29:19;;;;;;;3.72;1.13;;;14.90;99.90;;;;;;5073760;28;20389;-81
2022/07/11 05:31:50;;;;;;;3.58;1.30;;;14.90;99.90;;;;;;5073590;28;20422;-81
2022/07/11 05:34:18;;;;;;;3.17;1.10;;;14.90;99.90;;;;;;5073414;28;20402;-81
2022/07/11 05:36:45;;;;;;;2.88;1.10;;;15.00;99.90;;;;;;5073773;28;20370;-81
2022/07/11 05:39:13;;;;;;;4.47;1.33;;;15.10;99.90;;;;;;5073484;28;20386;-80
2022/07/11 05:41:41;;;;;;;3.97;1.40;;;15.20;99.90;;;;;;5073296;28;20794;-81
2022/07/11 05:44:08;;;;;;;3.80;1.40;;;15.20;99.90;;;;;;5074598;28;20505;-82
2022/07/11 05:46:39;;;;;;;3.35;1.40;;;15.20;99.90;;;;;;5073131;28;20382;-80
2022/07/11 05:49:09;;;;;;;4.60;1.60;;;15.20;99.90;;;;;;5072987;28;20370;-81
2022/07/11 05:51:37;;;;;;;4.38;1.58;;;15.10;99.90;;;;;;5073050;28;20453;-83
2022/07/11 05:54:04;;;;;;;3.88;1.30;;;15.00;99.90;;;;;;5073151;28;20391;-79
2022/07/11 05:56:32;;;;;;;4.70;1.50;;;15.00;99.90;;;;;;5073226;28;20381;-82
2022/07/11 05:58:59;;;;;;;4.82;1.60;;;14.90;99.90;;;;;;5072710;28;20921;-83
2022/07/11 06:01:26;;;;;;;4.35;1.45;;;14.90;99.90;;;;;;5071937;28;20397;-81
2022/07/11 06:03:54;;;;;;;4.50;1.92;;;14.80;99.90;;;;;;5073806;28;20397;-82
2022/07/11 06:06:21;;;;;;;6.05;2.30;;;14.70;99.90;;;;;;5073318;28;20382;-78
2022/07/11 06:08:48;;;;;;;5.00;1.80;;;14.60;99.90;;;;;;5071865;28;20469;-79
2022/07/11 06:11:16;;;;;;;6.28;2.58;;;14.60;99.90;;;;;;5073313;28;20381;-80
2022/07/11 06:13:48;;;;;;;5.00;2.45;;;14.60;99.90;;;;;;5073194;28;20881;-82
2022/07/11 06:16:16;;;;;;;5.07;2.60;;;14.50;99.90;;;;;;5072934;28;20405;-83
2022/07/11 06:18:44;;;;;;;9.70;2.78;;;14.40;99.90;;;;;;5072721;28;20375;-81
2022/07/11 06:21:11;;;;;;;6.43;2.50;;;14.20;99.90;;;;;;5072702;28;20465;-83
2022/07/11 06:23:40;;;;;;;6.82;2.40;;;14.20;99.90;;;;;;5073124;28;20392;-82
2022/07/11 06:26:07;;;;;;;4.30;2.10;;;14.10;99.90;;;;;;5071781;28;20398;-80
2022/07/11 06:28:34;;;;;;;5.78;2.10;;;14.00;99.90;;;;;;5073840;28;20459;-82
2022/07/11 06:31:02;;;;;;;5.73;2.10;;;14.00;99.90;;;;;;5075897;28;20378;-80
2022/07/11 06:33:29;;;;;;;6.53;1.98;;;13.80;99.90;;;;;;5080568;28;20468;-82
2022/07/11 06:35:57;;;;;;;5.22;1.88;;;13.70;99.90;;;;;;5076389;28;20389;-80
2022/07/11 06:38:24;;;;;;;5.75;1.77;;;13.60;99.90;;;;;;5073033;28;20383;-82
2022/07/11 06:40:53;;;;;;;3.83;1.97;;;13.50;99.90;;;;;;5072698;28;20381;-80
2022/07/11 06:43:20;;;;;;;5.28;2.00;;;13.30;99.90;;;;;;5072492;28;20397;-83
2022/07/11 06:45:48;;;;;;;5.78;2.15;;;13.30;99.90;;;;;;5073446;28;20777;-84
2022/07/11 06:48:15;;;;;;;4.93;2.00;;;13.20;99.90;;;;;;5072748;28;20401;-91
2022/07/11 06:50:43;;;;;;;6.65;2.13;;;13.10;99.90;;;;;;5072761;28;20374;-81
2022/07/11 06:53:11;;;;;;;6.47;2.10;;;13.00;99.90;;;;;;5072775;28;20373;-93
2022/07/11 06:55:38;;;;;;;5.00;2.28;;;12.90;99.90;;;;;;5072838;28;20385;-90
2022/07/11 06:58:06;;;;;;;6.50;2.20;;;12.80;99.90;;;;;;5072893;28;20861;-83
2022/07/11 07:00:33;;;;;;;6.55;2.20;;;12.20;99.90;;;;;;5072277;28;20386;-89
2022/07/11 07:03:01;;;;;;;6.35;2.47;;;12.60;99.90;;;;;;5072518;28;20393;-79
2022/07/11 07:05:29;;;;;;;8.77;2.43;;;12.50;99.90;;;;;;5072571;28;20509;-84
2022/07/11 07:07:56;;;;;;;5.20;2.20;;;12.40;99.90;;;;;;5072622;28;20374;-84
2022/07/11 07:10:25;;;;;;;6.77;2.20;;;12.40;99.90;;;;;;5072144;28;20374;-87
2022/07/11 07:12:52;;;;;;;5.30;2.47;;;12.30;99.90;;;;;;5071353;28;20450;-84
2022/07/11 07:15:19;;;;;;;6.75;2.50;;;12.20;99.90;;;;;;5071193;28;20735;-87
2022/07/11 07:17:46;;;;;;;6.65;2.70;;;12.10;99.90;;;;;;5072190;28;20500;-82
2022/07/11 07:20:13;;;;;;;5.57;2.33;;;12.00;99.90;;;;;;5072186;28;20377;-80
2022/07/11 07:22:40;;;;;;;9.73;3.30;;;11.90;99.90;;;;;;5074037;28;20382;-83
2022/07/11 07:25:09;;;;;;;7.00;3.78;;;11.80;99.90;;;;;;5072303;28;20448;-82
2022/07/11 07:27:36;;;;;;;8.40;4.00;;;11.70;99.90;;;;;;5072237;28;20886;-86
2022/07/11 07:30:04;;;;;;;8.90;4.07;;;11.70;99.90;;;;;;5075097;28;20765;-82
2022/07/11 07:32:35;;;;;;;8.07;3.70;;;11.70;99.90;;;;;;5073024;28;20362;-82
2022/07/11 07:35:02;;;;;;;9.80;3.30;;;11.60;99.90;;;;;;5072313;28;20411;-83
2022/07/11 07:37:29;;;;;;;11.20;3.35;;;11.60;99.90;;;;;;5071753;28;20746;-87
2022/07/11 07:39:56;;;;;;;8.52;3.00;;;11.60;99.90;;;;;;5071938;28;20727;-86
2022/07/11 07:42:23;;;;;;;10.05;3.28;;;11.60;99.90;;;;;;5071703;28;20402;-80
2022/07/11 07:44:50;;;;;;;8.70;3.17;;;11.50;99.90;;;;;;5071983;28;20402;-80
2022/07/11 07:47:18;;;;;;;7.63;2.85;;;11.50;99.90;;;;;;5072112;28;20384;-84
2022/07/11 07:49:45;;;;;;;10.55;3.63;;;11.40;99.90;;;;;;5072893;28;20378;-93
2022/07/11 07:52:12;;;;;;;8.68;3.30;;;11.40;99.90;;;;;;5072136;28;20378;-87
2022/07/11 07:54:39;;;;;;;9.43;3.60;;;11.40;99.90;;;;;;5072028;28;20928;-82
2022/07/11 07:57:06;;;;;;;9.95;3.97;;;11.40;99.90;;;;;;5071578;28;20374;-82
2022/07/11 07:59:33;;;;;;;11.52;3.75;;;11.40;99.90;;;;;;5072155;28;20389;-82
2022/07/11 08:02:00;;;;;;;13.05;4.47;;;11.30;99.90;;;;;;5072176;28;20437;-84
2022/07/11 08:04:29;;;;;;;9.90;3.97;;;11.30;99.90;;;;;;5075747;28;20552;-86
2022/07/11 08:06:59;;;;;;;9.18;4.00;;;11.30;99.90;;;;;;5074426;28;20374;-93
2022/07/11 08:09:26;;;;;;;9.48;4.22;;;11.20;99.90;;;;;;5074300;28;20390;-82
2022/07/11 08:11:53;;;;;;;16.37;6.97;;;11.20;99.90;;;;;;5073653;28;20529;-80
2022/07/11 08:14:21;;;;;;;13.18;6.25;;;11.10;99.90;;;;;;5072779;28;20382;-83
2022/07/11 08:16:48;;;;;;;16.67;7.80;;;11.10;99.90;;;;;;5071994;28;20423;-84
2022/07/11 08:19:16;;;;;;;12.43;6.40;;;11.00;99.90;;;;;;5072040;28;20921;-89
2022/07/11 08:21:43;;;;;;;14.25;6.95;;;11.00;99.90;;;;;;5072423;28;20387;-81
2022/07/11 08:24:10;;;;;;;10.23;6.20;;;10.90;99.90;;;;;;5076471;28;20382;-90
2022/07/11 08:26:37;;;;;;;12.02;6.05;;;10.90;99.90;;;;;;5078642;28;20385;-84
2022/07/11 08:29:05;;;;;;;13.75;6.18;;;10.80;99.90;;;;;;5077788;28;20362;-84
2022/07/11 08:31:33;;;;;;;16.08;8.20;;;10.80;99.90;;;;;;5076832;28;20719;-88
2022/07/11 08:34:01;;;;;;;14.93;7.30;;;10.80;99.90;;;;;;5076814;28;20396;-81
2022/07/11 08:36:34;;;;;;;16.30;6.80;;;10.80;99.90;;;;;;5077407;28;20380;-83
2022/07/11 08:39:02;;;;;;;12.73;5.53;;;10.70;99.90;;;;;;5076312;28;20703;-81
2022/07/11 08:41:31;;;;;;;12.85;5.70;;;10.70;99.90;;;;;;5076110;28;20461;-83
2022/07/11 08:44:00;;;;;;;14.10;6.35;;;10.60;99.90;;;;;;5075747;28;20890;-86
2022/07/11 08:46:29;;;;;;;15.73;7.13;;;10.50;99.90;;;;;;5077632;28;20385;-90
2022/07/11 08:48:57;;;;;;;19.17;9.20;;;10.50;99.90;;;;;;5076761;28;20431;-80
2022/07/11 08:51:27;;;;;;;17.02;8.40;;;10.40;99.90;;;;;;5075577;28;20464;-79
2022/07/11 08:53:54;;;;;;;16.25;7.53;;;10.40;99.90;;;;;;5075493;28;20375;-87
2022/07/11 08:56:24;;;;;;;13.73;6.80;;;10.40;99.90;;;;;;5074934;28;20370;-80
2022/07/11 08:58:51;;;;;;;16.83;6.72;;;10.30;99.90;;;;;;5073797;28;20378;-80
2022/07/11 09:01:20;;;;;;;14.23;6.40;;;10.30;99.90;;;;;;5074913;28;20382;-81
2022/07/11 09:03:48;;;;;;;14.50;6.10;;;10.30;99.90;;;;;;5075082;28;20390;-79
2022/07/11 09:06:15;;;;;;;15.40;6.50;;;10.30;99.90;;;;;;5075492;28;20415;-80
2022/07/11 09:08:42;;;;;;;16.50;7.40;;;10.30;99.90;;;;;;5076010;28;20374;-85
2022/07/11 09:11:11;;;;;;;13.23;6.53;;;10.30;99.90;;;;;;5075117;28;20846;-78
2022/07/11 09:13:38;;;;;;;15.07;7.30;;;10.20;99.90;;;;;;5075311;28;20385;-87
2022/07/11 09:16:07;;;;;;;18.45;7.28;;;10.20;99.90;;;;;;5074825;28;20401;-82
2022/07/11 09:18:38;;;;;;;15.40;7.80;;;10.10;99.90;;;;;;5075508;28;20374;-85
2022/07/11 09:26:46;;;;;;;15.48;7.68;;;10.00;99.90;;;;;;5074683;28;20377;-79
2022/07/11 09:29:24;;;;;;;18.60;10.25;;;9.90;99.90;;;;;;5077136;28;20858;-79
2022/07/11 09:31:51;;;;;;;16.35;9.00;;;9.90;99.90;;;;;;5080176;28;20481;-79
2022/07/11 09:34:21;;;;;;;19.42;10.40;;;9.90;99.90;;;;;;5076867;28;20846;-83
2022/07/11 09:36:56;;;;;;;20.73;10.63;;;10.00;99.90;;;;;;5074237;28;20416;-78
2022/07/11 09:39:28;;;;;;;23.27;11.32;;;10.00;99.90;;;;;;5074296;28;20765;-80
2022/07/11 09:41:56;;;;;;;30.95;21.67;;;10.10;99.90;;;;;;5074326;28;20374;-80
2022/07/11 09:44:33;;;;;;;49.67;39.25;;;10.10;99.90;;;;;;5075806;28;20437;-80
2022/07/11 09:47:10;;;;;;;24.40;11.45;;;10.10;99.90;;;;;;5074213;28;20382;-79
2022/07/11 09:49:39;;;;;;;25.55;9.88;;;10.00;99.90;;;;;;5073712;28;20378;-80
2022/07/11 09:52:15;;;;;;;20.25;10.15;;;10.00;99.90;;;;;;5073716;28;20739;-85
2022/07/11 09:55:02;;;;;;;19.73;9.95;;;9.90;99.90;;;;;;5073664;28;20378;-79
2022/07/11 09:57:36;;;;;;;24.30;11.07;;;9.90;99.90;;;;;;5073875;28;20492;-79
2022/07/11 10:00:09;;;;;;;23.05;12.07;;;10.00;99.90;;;;;;5073845;28;20370;-84
2022/07/11 10:02:36;;;;;;;22.88;11.57;;;9.90;99.90;;;;;;5074041;28;20381;-81
2022/07/11 10:05:04;;;;;;;22.93;11.33;;;9.90;99.90;;;;;;5073531;28;20956;-82
2022/07/11 10:07:32;;;;;;;23.23;11.67;;;9.90;99.90;;;;;;5074051;28;20370;-82
2022/07/11 10:10:06;;;;;;;22.45;13.50;;;9.90;99.90;;;;;;5074055;28;20460;-82
2022/07/11 10:12:33;;;;;;;22.77;13.68;;;9.90;99.90;;;;;;5074312;28;20861;-84
2022/07/11 10:15:09;;;;;;;24.95;15.45;;;9.90;99.90;;;;;;5074087;28;20384;-86
2022/07/11 10:18:06;;;;;;;28.55;17.48;;;9.80;99.90;;;;;;5073763;28;20377;-87
2022/07/11 10:20:53;;;;;;;29.85;16.50;;;9.90;99.90;;;;;;5074046;28;20397;-87
2022/07/11 10:23:38;;;;;;;26.15;14.90;;;9.80;99.90;;;;;;5073625;28;20731;-86
2022/07/11 10:26:17;;;;;;;24.27;13.65;;;9.80;99.90;;;;;;5073236;28;20386;-80
2022/07/11 10:29:18;;;;;;;24.17;13.77;;;9.80;99.90;;;;;;5073921;28;20434;-82
2022/07/11 10:32:04;;;;;;;28.02;15.32;;;9.80;99.90;;;;;;5072948;28;20418;-85
2022/07/11 10:34:31;;;;;;;24.30;14.00;;;9.80;99.90;;;;;;5073428;28;20469;-81
2022/07/11 10:37:06;;;;;;;20.77;13.20;;;9.70;99.90;;;;;;5073509;28;20469;-84
2022/07/11 10:39:35;;;;;;;22.23;13.23;;;9.70;99.90;;;;;;5072764;28;20435;-82
2022/07/11 10:42:05;;;;;;;24.20;14.02;;;9.50;99.90;;;;;;5073337;28;20377;-86
2022/07/11 10:45:09;;;;;;;24.43;14.83;;;9.70;99.90;;;;;;5071667;28;20459;-81
2022/07/11 10:47:44;;;;;;;24.45;15.38;;;9.60;99.90;;;;;;5032811;28;20465;-80
2022/07/11 10:50:38;;;;;;;23.10;14.50;;;9.60;99.90;;;;;;5031633;28;20400;-80
2022/07/11 10:53:20;;;;;;;22.47;15.30;;;9.60;99.90;;;;;;5031139;28;20460;-83
2022/07/11 10:56:24;;;;;;;21.52;13.93;;;9.60;99.90;;;;;;5031789;28;20384;-81
2022/07/11 10:59:17;;;;;;;20.13;12.23;;;9.60;99.90;;;;;;5031698;28;20488;-85
2022/07/11 11:02:11;;;;;;;16.15;10.98;;;9.60;99.90;;;;;;5032068;28;20886;-89
2022/07/11 11:05:02;;;;;;;14.65;10.05;;;9.60;99.90;;;;;;5032089;28;20431;-88
2022/07/11 11:07:45;;;;;;;17.55;10.00;;;9.60;99.90;;;;;;5031288;28;20374;-84
2022/07/11 11:10:30;;;;;;;16.80;10.30;;;9.60;99.90;;;;;;5031119;28;20382;-80
2022/07/11 11:13:06;;;;;;;16.00;10.02;;;9.70;99.90;;;;;;5015151;28;20897;-80
2022/07/11 11:15:44;;;;;;;16.80;9.95;;;9.70;99.90;;;;;;5030831;28;20412;-79
2022/07/11 11:18:26;;;;;;;18.17;10.73;;;9.60;99.90;;;;;;5030720;28;20376;-81
2022/07/11 11:21:12;;;;;;;15.25;10.50;;;9.60;99.90;;;;;;5041516;28;20870;-83
2022/07/11 11:23:42;;;;;;;17.05;10.80;;;9.60;99.90;;;;;;5073160;28;20385;-85
2022/07/11 11:26:10;;;;;;;15.90;10.48;;;9.60;99.90;;;;;;5073352;28;20389;-91
2022/07/11 11:28:54;;;;;;;16.80;11.23;;;9.60;99.90;;;;;;5073720;28;20400;-81
2022/07/11 11:31:21;;;;;;;17.30;12.85;;;9.50;99.90;;;;;;5073080;28;20441;-79
2022/07/11 11:33:49;;;;;;;28.17;19.20;;;9.50;99.90;;;;;;5073246;28;20390;-85
2022/07/11 11:36:22;;;;;;;27.00;18.83;;;9.40;99.90;;;;;;5072973;28;20428;-81
2022/07/11 11:38:49;;;;;;;56.05;32.50;;;9.30;99.90;;;;;;5072864;28;20378;-79
2022/07/11 11:41:24;;;;;;;58.10;34.92;;;9.30;99.90;;;;;;5072446;28;20937;-79
2022/07/11 11:43:53;;;;;;;35.43;21.70;;;9.30;99.90;;;;;;5072575;28;20459;-79
2022/07/11 11:46:31;;;;;;;35.20;20.02;;;9.30;99.90;;;;;;5072773;28;20738;-86
2022/07/11 11:48:59;;;;;;;18.48;12.18;;;9.30;99.90;;;;;;5072442;28;20363;-80
2022/07/11 11:51:31;;;;;;;19.10;11.07;;;9.30;99.90;;;;;;5072794;28;20866;-83
2022/07/11 11:54:01;;;;;;;21.27;11.00;;;9.30;99.90;;;;;;5072682;28;20389;-80
2022/07/11 11:56:33;;;;;;;16.83;8.70;;;9.30;99.90;;;;;;5072937;28;20378;-81
2022/07/11 11:59:15;;;;;;;12.10;6.45;;;9.30;99.90;;;;;;5075538;28;20374;-85
2022/07/11 12:01:45;;;;;;;13.10;7.47;;;9.30;99.90;;;;;;5076595;28;20416;-81
2022/07/11 12:04:16;;;;;;;10.77;6.75;;;9.30;99.90;;;;;;5076969;28;20398;-83
2022/07/11 12:06:46;;;;;;;12.07;6.97;;;9.20;99.90;;;;;;5076883;28;20445;-89
2022/07/11 12:09:19;;;;;;;10.30;5.40;;;9.20;99.90;;;;;;5076698;28;20383;-89
2022/07/11 12:14:42;;;;;;;10.18;4.30;;;9.20;99.90;;;;;;5014776;28;20439;-83
2022/07/11 12:17:09;;;;;;;9.83;4.70;;;9.30;99.90;;;;;;5014291;28;20488;-81
2022/07/11 12:19:37;;;;;;;10.38;6.40;;;9.20;99.90;;;;;;5013971;28;20450;-80
2022/07/11 12:22:05;;;;;;;12.30;6.75;;;9.20;99.90;;;;;;5014104;28;20479;-83
2022/07/11 12:24:33;;;;;;;12.80;7.20;;;9.10;99.90;;;;;;5013128;28;20410;-89
2022/07/11 12:27:00;;;;;;;9.75;5.72;;;9.00;99.90;;;;;;5013721;28;20382;-78
2022/07/11 12:29:28;;;;;;;10.60;5.30;;;9.00;99.90;;;;;;5013188;28;20383;-81
2022/07/11 12:32:11;;;;;;;9.00;5.10;;;9.00;99.90;;;;;;5013018;28;20462;-84
2022/07/11 12:34:38;;;;;;;8.05;5.18;;;9.00;99.90;;;;;;5012922;28;20449;-82
2022/07/11 12:37:19;;;;;;;8.07;4.63;;;9.00;99.90;;;;;;5012337;28;20751;-80
2022/07/11 12:40:06;;;;;;;12.02;4.53;;;9.00;99.90;;;;;;5013176;28;20379;-80
2022/07/11 12:42:35;;;;;;;6.50;4.57;;;8.90;99.90;;;;;;5012934;28;20775;-83
2022/07/11 12:45:07;;;;;;;7.53;4.22;;;9.00;99.90;;;;;;5012787;28;20437;-80
2022/07/11 12:47:38;;;;;;;8.32;4.32;;;9.00;99.90;;;;;;5013367;28;20379;-80
2022/07/11 12:50:15;;;;;;;7.28;4.40;;;8.90;99.90;;;;;;5012506;28;20745;-83
2022/07/11 12:52:47;;;;;;;7.28;4.50;;;8.90;99.90;;;;;;5067376;28;20370;-79
2022/07/11 12:55:26;;;;;;;10.60;4.75;;;8.90;99.90;;;;;;5074366;28;20385;-82
2022/07/11 12:58:03;;;;;;;8.07;4.20;;;8.80;99.90;;;;;;5074851;28;20370;-86
2022/07/11 13:00:31;;;;;;;8.77;4.57;;;8.80;99.90;;;;;;5074007;28;20378;-79
2022/07/11 13:02:59;;;;;;;7.20;4.38;;;8.80;99.90;;;;;;5074124;28;20382;-80
2022/07/11 13:05:26;;;;;;;10.65;4.75;;;8.80;99.90;;;;;;5074070;28;20397;-78
2022/07/11 13:10:51;;;;;;;8.23;4.82;;;8.80;99.90;;;;;;5073479;28;20419;-80